TimeCDT,TemperatureF,Dew PointF,Humidity,Sea Level PressureIn,VisibilityMPH,Wind Direction,Wind SpeedMPH,Gust SpeedMPH,PrecipitationIn,Events,Conditions,WindDirDegrees,DateUTC
1:54 AM,39.0,35.1,86,30.24,10.0,Calm,Calm,-,N/A,,Clear,0,2013-03-13 06:54:00
2:54 AM,37.9,35.1,89,30.24,10.0,Calm,Calm,-,N/A,,Clear,0,2013-03-13 07:54:00
3:54 AM,37.0,35.1,93,30.24,10.0,Calm,Calm,-,N/A,,Clear,0,2013-03-13 08:54:00
4:54 AM,37.9,35.1,89,30.27,10.0,Calm,Calm,-,N/A,,Clear,0,2013-03-13 09:54:00
5:54 AM,45.0,34.0,65,30.31,10.0,North,11.5,-,N/A,,Clear,360,2013-03-13 10:54:00
6:54 AM,43.0,33.1,68,30.34,10.0,North,9.2,-,N/A,,Clear,350,2013-03-13 11:54:00
7:54 AM,42.1,33.1,70,30.36,10.0,North,4.6,-,N/A,,Clear,350,2013-03-13 12:54:00
8:54 AM,48.9,33.1,54,30.38,10.0,North,8.1,-,N/A,,Clear,350,2013-03-13 13:54:00
9:54 AM,51.1,27.0,39,30.40,10.0,NNE,10.4,-,N/A,,Clear,20,2013-03-13 14:54:00
10:54 AM,53.1,21.9,30,30.41,10.0,North,17.3,21.9,N/A,,Clear,350,2013-03-13 15:54:00
11:54 AM,55.0,19.0,24,30.41,10.0,NNW,12.7,27.6,N/A,,Clear,340,2013-03-13 16:54:00
12:54 PM,57.0,19.9,24,30.40,10.0,NNW,11.5,17.3,N/A,,Clear,330,2013-03-13 17:54:00
1:54 PM,57.9,19.9,23,30.38,10.0,NNW,10.4,21.9,N/A,,Clear,330,2013-03-13 18:54:00
2:54 PM,57.9,21.9,25,30.37,10.0,NNW,13.8,20.7,N/A,,Clear,340,2013-03-13 19:54:00
3:54 PM,57.9,23.0,26,30.36,10.0,North,12.7,21.9,N/A,,Clear,360,2013-03-13 20:54:00
4:54 PM,57.0,21.9,26,30.36,10.0,NW,11.5,-,N/A,,Clear,310,2013-03-13 21:54:00
5:54 PM,55.9,23.0,28,30.36,10.0,NNW,9.2,-,N/A,,Clear,330,2013-03-13 22:54:00
6:54 PM,53.1,23.0,31,30.36,10.0,NNW,10.4,-,N/A,,Clear,330,2013-03-13 23:54:00
7:54 PM,46.9,26.1,44,30.37,10.0,NNW,5.8,-,N/A,,Clear,340,2013-03-14 00:54:00
8:54 PM,45.0,28.0,52,30.38,10.0,North,4.6,-,N/A,,Clear,360,2013-03-14 01:54:00
9:54 PM,45.0,28.0,52,30.39,10.0,Calm,Calm,-,N/A,,Clear,0,2013-03-14 02:54:00
10:54 PM,44.1,28.9,55,30.42,10.0,North,3.5,-,N/A,,Clear,360,2013-03-14 03:54:00
11:54 PM,41.0,30.0,65,30.41,10.0,Calm,Calm,-,N/A,,Clear,0,2013-03-14 04:54:00